sensor_id;sensor_type;location;lat;lon;timestamp;temperature;humidity
12773;DHT22;6450;48.576;13.460;2022-08-05T00:01:29;25.00;75.60
12773;DHT22;6450;48.576;13.460;2022-08-05T00:03:56;25.30;76.00
12773;DHT22;6450;48.576;13.460;2022-08-05T00:06:23;25.30;88.10
12773;DHT22;6450;48.576;13.460;2022-08-05T00:08:51;25.20;76.60
12773;DHT22;6450;48.576;13.460;2022-08-05T00:11:18;25.20;76.60
12773;DHT22;6450;48.576;13.460;2022-08-05T00:13:45;25.10;76.50
12773;DHT22;6450;48.576;13.460;2022-08-05T00:16:13;25.00;89.70
12773;DHT22;6450;48.576;13.460;2022-08-05T00:18:43;25.00;88.30
12773;DHT22;6450;48.576;13.460;2022-08-05T00:21:10;25.10;77.10
12773;DHT22;6450;48.576;13.460;2022-08-05T00:23:37;25.00;89.10
12773;DHT22;6450;48.576;13.460;2022-08-05T00:26:06;25.00;77.40
12773;DHT22;6450;48.576;13.460;2022-08-05T00:28:34;25.00;77.30
12773;DHT22;6450;48.576;13.460;2022-08-05T00:31:02;25.00;77.40
12773;DHT22;6450;48.576;13.460;2022-08-05T00:33:29;25.00;77.50
12773;DHT22;6450;48.576;13.460;2022-08-05T00:35:56;24.90;88.10
12773;DHT22;6450;48.576;13.460;2022-08-05T00:38:24;24.90;77.20
12773;DHT22;6450;48.576;13.460;2022-08-05T00:40:53;24.80;76.60
12773;DHT22;6450;48.576;13.460;2022-08-05T00:43:23;24.80;77.50
12773;DHT22;6450;48.576;13.460;2022-08-05T00:45:50;24.80;77.50
12773;DHT22;6450;48.576;13.460;2022-08-05T00:48:19;24.80;89.20
12773;DHT22;6450;48.576;13.460;2022-08-05T00:50:48;24.80;78.00
12773;DHT22;6450;48.576;13.460;2022-08-05T00:53:19;24.60;87.40
12773;DHT22;6450;48.576;13.460;2022-08-05T00:55:46;24.80;77.50
12773;DHT22;6450;48.576;13.460;2022-08-05T00:58:14;24.80;77.70
12773;DHT22;6450;48.576;13.460;2022-08-05T01:00:44;24.80;77.80
12773;DHT22;6450;48.576;13.460;2022-08-05T01:03:11;24.80;78.00
12773;DHT22;6450;48.576;13.460;2022-08-05T01:05:39;24.80;77.70
12773;DHT22;6450;48.576;13.460;2022-08-05T01:08:06;24.70;77.60
12773;DHT22;6450;48.576;13.460;2022-08-05T01:10:39;24.70;77.90
12773;DHT22;6450;48.576;13.460;2022-08-05T01:13:12;24.60;89.20
12773;DHT22;6450;48.576;13.460;2022-08-05T01:15:47;24.60;78.70
12773;DHT22;6450;48.576;13.460;2022-08-05T01:18:20;24.60;78.20
12773;DHT22;6450;48.576;13.460;2022-08-05T01:20:52;24.60;78.50
12773;DHT22;6450;48.576;13.460;2022-08-05T01:23:43;24.50;78.50
12773;DHT22;6450;48.576;13.460;2022-08-05T01:26:25;24.60;88.60
12773;DHT22;6450;48.576;13.460;2022-08-05T01:28:59;24.50;78.80
12773;DHT22;6450;48.576;13.460;2022-08-05T01:31:33;24.50;79.50
12773;DHT22;6450;48.576;13.460;2022-08-05T01:34:08;24.50;79.50
12773;DHT22;6450;48.576;13.460;2022-08-05T01:36:42;24.40;79.20
12773;DHT22;6450;48.576;13.460;2022-08-05T01:39:11;24.40;79.90
12773;DHT22;6450;48.576;13.460;2022-08-05T01:41:40;24.40;80.00
12773;DHT22;6450;48.576;13.460;2022-08-05T01:44:10;24.30;79.70
12773;DHT22;6450;48.576;13.460;2022-08-05T01:46:39;24.30;80.10
12773;DHT22;6450;48.576;13.460;2022-08-05T01:49:09;24.30;80.80
12773;DHT22;6450;48.576;13.460;2022-08-05T01:51:37;24.30;90.70
12773;DHT22;6450;48.576;13.460;2022-08-05T01:54:07;24.20;81.60
12773;DHT22;6450;48.576;13.460;2022-08-05T01:56:38;24.20;80.60
12773;DHT22;6450;48.576;13.460;2022-08-05T01:59:14;24.20;80.60
12773;DHT22;6450;48.576;13.460;2022-08-05T02:01:42;24.20;81.50
12773;DHT22;6450;48.576;13.460;2022-08-05T02:04:14;24.20;81.00
12773;DHT22;6450;48.576;13.460;2022-08-05T02:06:42;24.20;79.90
12773;DHT22;6450;48.576;13.460;2022-08-05T02:09:09;24.20;80.50
12773;DHT22;6450;48.576;13.460;2022-08-05T02:11:41;24.10;80.80
12773;DHT22;6450;48.576;13.460;2022-08-05T02:14:16;24.10;81.60
12773;DHT22;6450;48.576;13.460;2022-08-05T02:16:45;24.10;81.30
12773;DHT22;6450;48.576;13.460;2022-08-05T02:19:18;24.00;80.80
12773;DHT22;6450;48.576;13.460;2022-08-05T02:24:20;24.00;80.80
12773;DHT22;6450;48.576;13.460;2022-08-05T02:26:50;23.90;81.60
12773;DHT22;6450;48.576;13.460;2022-08-05T02:29:21;24.00;81.60
12773;DHT22;6450;48.576;13.460;2022-08-05T02:31:50;24.00;81.30
12773;DHT22;6450;48.576;13.460;2022-08-05T02:34:20;23.90;80.50
12773;DHT22;6450;48.576;13.460;2022-08-05T02:36:49;24.00;81.40
12773;DHT22;6450;48.576;13.460;2022-08-05T02:39:19;24.00;81.30
12773;DHT22;6450;48.576;13.460;2022-08-05T02:41:48;24.00;81.40
12773;DHT22;6450;48.576;13.460;2022-08-05T02:44:16;23.90;81.80
12773;DHT22;6450;48.576;13.460;2022-08-05T02:46:46;23.90;81.90
12773;DHT22;6450;48.576;13.460;2022-08-05T02:49:14;23.90;82.00
12773;DHT22;6450;48.576;13.460;2022-08-05T02:51:43;23.90;81.20
12773;DHT22;6450;48.576;13.460;2022-08-05T02:54:11;23.90;82.40
12773;DHT22;6450;48.576;13.460;2022-08-05T02:56:39;23.80;83.50
12773;DHT22;6450;48.576;13.460;2022-08-05T02:59:09;23.80;84.30
12773;DHT22;6450;48.576;13.460;2022-08-05T03:01:37;23.70;84.30
12773;DHT22;6450;48.576;13.460;2022-08-05T03:04:09;23.70;84.90
12773;DHT22;6450;48.576;13.460;2022-08-05T03:06:37;23.60;85.10
12773;DHT22;6450;48.576;13.460;2022-08-05T03:09:05;23.50;85.00
12773;DHT22;6450;48.576;13.460;2022-08-05T03:11:32;23.50;86.00
12773;DHT22;6450;48.576;13.460;2022-08-05T03:14:16;23.50;85.90
12773;DHT22;6450;48.576;13.460;2022-08-05T03:16:43;23.50;85.40
12773;DHT22;6450;48.576;13.460;2022-08-05T03:19:12;23.50;85.10
12773;DHT22;6450;48.576;13.460;2022-08-05T03:21:39;23.60;93.10
12773;DHT22;6450;48.576;13.460;2022-08-05T03:24:06;23.50;86.90
12773;DHT22;6450;48.576;13.460;2022-08-05T03:26:34;23.50;86.10
12773;DHT22;6450;48.576;13.460;2022-08-05T03:29:01;23.50;86.10
12773;DHT22;6450;48.576;13.460;2022-08-05T03:31:29;23.40;85.60
12773;DHT22;6450;48.576;13.460;2022-08-05T03:33:56;23.40;85.90
12773;DHT22;6450;48.576;13.460;2022-08-05T03:36:25;23.40;85.60
12773;DHT22;6450;48.576;13.460;2022-08-05T03:38:52;23.50;86.20
12773;DHT22;6450;48.576;13.460;2022-08-05T03:41:19;23.50;84.80
12773;DHT22;6450;48.576;13.460;2022-08-05T03:43:46;23.50;85.30
12773;DHT22;6450;48.576;13.460;2022-08-05T03:46:13;23.50;89.50
12773;DHT22;6450;48.576;13.460;2022-08-05T03:48:40;23.40;89.20
12773;DHT22;6450;48.576;13.460;2022-08-05T03:51:11;23.40;89.70
12773;DHT22;6450;48.576;13.460;2022-08-05T03:53:45;23.30;90.30
12773;DHT22;6450;48.576;13.460;2022-08-05T03:56:18;23.30;95.20
12773;DHT22;6450;48.576;13.460;2022-08-05T03:58:48;23.30;89.80
12773;DHT22;6450;48.576;13.460;2022-08-05T04:01:18;23.30;90.20
12773;DHT22;6450;48.576;13.460;2022-08-05T04:03:48;23.20;90.40
12773;DHT22;6450;48.576;13.460;2022-08-05T04:06:17;23.20;90.60
12773;DHT22;6450;48.576;13.460;2022-08-05T04:08:46;23.30;90.90
12773;DHT22;6450;48.576;13.460;2022-08-05T04:11:13;23.40;90.80
12773;DHT22;6450;48.576;13.460;2022-08-05T04:13:41;23.40;90.50
12773;DHT22;6450;48.576;13.460;2022-08-05T04:16:08;23.40;90.10
12773;DHT22;6450;48.576;13.460;2022-08-05T04:18:37;23.60;95.40
12773;DHT22;6450;48.576;13.460;2022-08-05T04:21:05;23.50;90.80
12773;DHT22;6450;48.576;13.460;2022-08-05T04:23:33;23.60;90.50
12773;DHT22;6450;48.576;13.460;2022-08-05T04:26:03;23.60;90.80
12773;DHT22;6450;48.576;13.460;2022-08-05T04:28:30;23.60;90.50
12773;DHT22;6450;48.576;13.460;2022-08-05T04:30:57;23.70;95.00
12773;DHT22;6450;48.576;13.460;2022-08-05T04:33:25;23.60;90.20
12773;DHT22;6450;48.576;13.460;2022-08-05T04:35:52;23.70;90.20
12773;DHT22;6450;48.576;13.460;2022-08-05T04:38:21;23.80;90.20
12773;DHT22;6450;48.576;13.460;2022-08-05T04:40:48;24.00;94.70
12773;DHT22;6450;48.576;13.460;2022-08-05T04:43:17;23.90;90.20
12773;DHT22;6450;48.576;13.460;2022-08-05T04:45:44;23.90;90.20
12773;DHT22;6450;48.576;13.460;2022-08-05T04:48:12;23.90;89.70
12773;DHT22;6450;48.576;13.460;2022-08-05T04:50:40;24.00;89.80
12773;DHT22;6450;48.576;13.460;2022-08-05T04:53:07;24.00;89.30
12773;DHT22;6450;48.576;13.460;2022-08-05T04:55:35;24.00;90.00
12773;DHT22;6450;48.576;13.460;2022-08-05T04:58:02;24.00;89.90
12773;DHT22;6450;48.576;13.460;2022-08-05T05:00:33;24.00;89.70
12773;DHT22;6450;48.576;13.460;2022-08-05T05:03:00;24.10;89.20
12773;DHT22;6450;48.576;13.460;2022-08-05T05:05:28;24.00;90.00
12773;DHT22;6450;48.576;13.460;2022-08-05T05:07:55;24.10;90.00
12773;DHT22;6450;48.576;13.460;2022-08-05T05:10:25;24.20;90.10
12773;DHT22;6450;48.576;13.460;2022-08-05T05:12:52;24.30;88.90
12773;DHT22;6450;48.576;13.460;2022-08-05T05:15:19;24.40;89.50
12773;DHT22;6450;48.576;13.460;2022-08-05T05:17:47;24.50;89.20
12773;DHT22;6450;48.576;13.460;2022-08-05T05:20:14;24.60;87.80
12773;DHT22;6450;48.576;13.460;2022-08-05T05:22:41;24.80;87.00
12773;DHT22;6450;48.576;13.460;2022-08-05T05:25:09;24.90;87.50
12773;DHT22;6450;48.576;13.460;2022-08-05T05:27:37;25.10;85.80
12773;DHT22;6450;48.576;13.460;2022-08-05T05:30:05;25.20;85.50
12773;DHT22;6450;48.576;13.460;2022-08-05T05:32:32;25.30;85.80
12773;DHT22;6450;48.576;13.460;2022-08-05T05:35:00;25.40;85.40
12773;DHT22;6450;48.576;13.460;2022-08-05T05:37:27;25.50;84.10
12773;DHT22;6450;48.576;13.460;2022-08-05T05:39:54;25.50;84.90
12773;DHT22;6450;48.576;13.460;2022-08-05T05:42:21;25.50;85.00
12773;DHT22;6450;48.576;13.460;2022-08-05T05:44:48;25.50;85.20
12773;DHT22;6450;48.576;13.460;2022-08-05T05:47:15;25.60;86.80
12773;DHT22;6450;48.576;13.460;2022-08-05T05:49:42;25.60;85.90
12773;DHT22;6450;48.576;13.460;2022-08-05T05:52:10;25.90;91.90
12773;DHT22;6450;48.576;13.460;2022-08-05T05:54:37;25.70;84.40
12773;DHT22;6450;48.576;13.460;2022-08-05T05:57:04;26.00;83.20
12773;DHT22;6450;48.576;13.460;2022-08-05T05:59:31;24.20;82.20
12773;DHT22;6450;48.576;13.460;2022-08-05T06:01:58;26.10;83.00
12773;DHT22;6450;48.576;13.460;2022-08-05T06:04:25;26.30;90.20
12773;DHT22;6450;48.576;13.460;2022-08-05T06:06:52;26.40;81.50
12773;DHT22;6450;48.576;13.460;2022-08-05T06:09:21;26.40;79.00
12773;DHT22;6450;48.576;13.460;2022-08-05T06:11:48;26.30;87.50
12773;DHT22;6450;48.576;13.460;2022-08-05T06:14:15;26.60;87.10
12773;DHT22;6450;48.576;13.460;2022-08-05T06:16:42;26.60;77.70
12773;DHT22;6450;48.576;13.460;2022-08-05T06:19:09;28.00;77.50
12773;DHT22;6450;48.576;13.460;2022-08-05T06:21:36;26.90;75.80
12773;DHT22;6450;48.576;13.460;2022-08-05T06:24:04;27.00;77.10
12773;DHT22;6450;48.576;13.460;2022-08-05T06:26:32;26.90;77.90
12773;DHT22;6450;48.576;13.460;2022-08-05T06:29:00;26.70;87.10
12773;DHT22;6450;48.576;13.460;2022-08-05T06:31:27;26.60;76.90
12773;DHT22;6450;48.576;13.460;2022-08-05T06:33:54;26.80;76.10
12773;DHT22;6450;48.576;13.460;2022-08-05T06:36:21;27.10;74.60
12773;DHT22;6450;48.576;13.460;2022-08-05T06:38:48;27.10;75.20
12773;DHT22;6450;48.576;13.460;2022-08-05T06:41:18;27.60;82.30
12773;DHT22;6450;48.576;13.460;2022-08-05T06:43:47;27.60;73.60
12773;DHT22;6450;48.576;13.460;2022-08-05T06:46:14;27.70;71.10
12773;DHT22;6450;48.576;13.460;2022-08-05T06:48:41;27.80;70.30
12773;DHT22;6450;48.576;13.460;2022-08-05T06:51:08;27.90;70.70
12773;DHT22;6450;48.576;13.460;2022-08-05T06:53:35;27.90;69.70
12773;DHT22;6450;48.576;13.460;2022-08-05T06:56:03;28.00;67.70
12773;DHT22;6450;48.576;13.460;2022-08-05T06:58:30;28.40;79.30
12773;DHT22;6450;48.576;13.460;2022-08-05T07:00:59;28.30;69.10
12773;DHT22;6450;48.576;13.460;2022-08-05T07:03:27;28.20;70.40
12773;DHT22;6450;48.576;13.460;2022-08-05T07:05:55;28.20;72.00
12773;DHT22;6450;48.576;13.460;2022-08-05T07:08:21;28.10;73.40
12773;DHT22;6450;48.576;13.460;2022-08-05T07:10:49;28.10;75.30
12773;DHT22;6450;48.576;13.460;2022-08-05T07:13:17;28.10;77.50
12773;DHT22;6450;48.576;13.460;2022-08-05T07:16:02;28.80;87.70
12773;DHT22;6450;48.576;13.460;2022-08-05T07:18:47;28.10;89.10
12773;DHT22;6450;48.576;13.460;2022-08-05T07:21:14;28.00;79.40
12773;DHT22;6450;48.576;13.460;2022-08-05T07:23:41;28.00;81.10
12773;DHT22;6450;48.576;13.460;2022-08-05T07:26:08;27.90;82.40
12773;DHT22;6450;48.576;13.460;2022-08-05T07:28:35;27.80;82.40
12773;DHT22;6450;48.576;13.460;2022-08-05T07:31:04;27.90;83.90
12773;DHT22;6450;48.576;13.460;2022-08-05T07:33:32;27.80;84.70
12773;DHT22;6450;48.576;13.460;2022-08-05T07:35:59;27.70;85.80
12773;DHT22;6450;48.576;13.460;2022-08-05T07:38:26;27.50;87.10
12773;DHT22;6450;48.576;13.460;2022-08-05T07:40:53;27.50;88.70
12773;DHT22;6450;48.576;13.460;2022-08-05T07:43:20;27.40;88.50
12773;DHT22;6450;48.576;13.460;2022-08-05T07:45:47;27.30;89.00
12773;DHT22;6450;48.576;13.460;2022-08-05T07:48:16;27.00;94.60
12773;DHT22;6450;48.576;13.460;2022-08-05T07:50:43;26.90;90.60
12773;DHT22;6450;48.576;13.460;2022-08-05T07:53:10;26.80;91.40
12773;DHT22;6450;48.576;13.460;2022-08-05T07:55:37;26.60;92.10
12773;DHT22;6450;48.576;13.460;2022-08-05T07:58:04;26.60;92.40
12773;DHT22;6450;48.576;13.460;2022-08-05T08:00:31;26.70;92.90
12773;DHT22;6450;48.576;13.460;2022-08-05T08:02:58;26.50;93.00
12773;DHT22;6450;48.576;13.460;2022-08-05T08:05:27;26.70;93.10
12773;DHT22;6450;48.576;13.460;2022-08-05T08:07:53;26.70;93.60
12773;DHT22;6450;48.576;13.460;2022-08-05T08:10:21;27.10;92.70
12773;DHT22;6450;48.576;13.460;2022-08-05T08:12:48;27.40;92.40
12773;DHT22;6450;48.576;13.460;2022-08-05T08:15:15;27.60;92.50
12773;DHT22;6450;48.576;13.460;2022-08-05T08:17:43;27.80;91.50
12773;DHT22;6450;48.576;13.460;2022-08-05T08:20:10;27.90;91.30
12773;DHT22;6450;48.576;13.460;2022-08-05T08:22:39;27.90;91.40
12773;DHT22;6450;48.576;13.460;2022-08-05T08:25:07;27.80;91.70
12773;DHT22;6450;48.576;13.460;2022-08-05T08:27:34;27.70;91.90
12773;DHT22;6450;48.576;13.460;2022-08-05T08:30:02;27.60;92.60
12773;DHT22;6450;48.576;13.460;2022-08-05T08:32:29;27.60;92.70
12773;DHT22;6450;48.576;13.460;2022-08-05T08:34:56;27.50;93.20
12773;DHT22;6450;48.576;13.460;2022-08-05T08:37:23;27.20;93.60
12773;DHT22;6450;48.576;13.460;2022-08-05T08:39:51;27.20;93.90
12773;DHT22;6450;48.576;13.460;2022-08-05T08:42:18;27.50;93.20
12773;DHT22;6450;48.576;13.460;2022-08-05T08:44:46;27.50;96.60
12773;DHT22;6450;48.576;13.460;2022-08-05T08:47:14;27.70;92.90
12773;DHT22;6450;48.576;13.460;2022-08-05T08:49:45;27.50;92.90
12773;DHT22;6450;48.576;13.460;2022-08-05T08:52:18;27.60;92.80
12773;DHT22;6450;48.576;13.460;2022-08-05T08:54:51;27.50;91.90
12773;DHT22;6450;48.576;13.460;2022-08-05T08:57:20;27.40;92.40
12773;DHT22;6450;48.576;13.460;2022-08-05T08:59:48;27.00;93.60
12773;DHT22;6450;48.576;13.460;2022-08-05T09:02:17;27.10;93.70
12773;DHT22;6450;48.576;13.460;2022-08-05T09:04:45;27.30;93.30
12773;DHT22;6450;48.576;13.460;2022-08-05T09:07:12;27.30;93.20
12773;DHT22;6450;48.576;13.460;2022-08-05T09:09:39;27.40;93.30
12773;DHT22;6450;48.576;13.460;2022-08-05T09:12:09;27.60;93.00
12773;DHT22;6450;48.576;13.460;2022-08-05T09:14:37;27.70;92.70
12773;DHT22;6450;48.576;13.460;2022-08-05T09:17:05;28.00;92.10
12773;DHT22;6450;48.576;13.460;2022-08-05T09:19:33;28.40;91.00
12773;DHT22;6450;48.576;13.460;2022-08-05T09:22:00;28.50;91.30
12773;DHT22;6450;48.576;13.460;2022-08-05T09:24:27;28.70;90.80
12773;DHT22;6450;48.576;13.460;2022-08-05T09:26:57;28.80;90.40
12773;DHT22;6450;48.576;13.460;2022-08-05T09:29:38;28.90;89.30
12773;DHT22;6450;48.576;13.460;2022-08-05T09:32:07;28.90;88.90
12773;DHT22;6450;48.576;13.460;2022-08-05T09:34:51;29.00;87.90
12773;DHT22;6450;48.576;13.460;2022-08-05T09:37:20;28.50;89.50
12773;DHT22;6450;48.576;13.460;2022-08-05T09:39:48;28.60;90.10
12773;DHT22;6450;48.576;13.460;2022-08-05T09:42:16;29.10;93.10
12773;DHT22;6450;48.576;13.460;2022-08-05T09:44:46;29.10;88.20
12773;DHT22;6450;48.576;13.460;2022-08-05T09:47:16;29.10;86.90
12773;DHT22;6450;48.576;13.460;2022-08-05T09:49:45;28.80;88.10
12773;DHT22;6450;48.576;13.460;2022-08-05T09:52:20;28.90;88.50
12773;DHT22;6450;48.576;13.460;2022-08-05T09:54:52;28.80;89.40
12773;DHT22;6450;48.576;13.460;2022-08-05T09:57:37;29.00;88.90
12773;DHT22;6450;48.576;13.460;2022-08-05T10:00:15;28.90;93.50
12773;DHT22;6450;48.576;13.460;2022-08-05T10:02:44;28.70;89.20
12773;DHT22;6450;48.576;13.460;2022-08-05T10:05:13;28.60;90.10
12773;DHT22;6450;48.576;13.460;2022-08-05T10:07:49;28.60;90.40
12773;DHT22;6450;48.576;13.460;2022-08-05T10:10:18;29.00;88.20
12773;DHT22;6450;48.576;13.460;2022-08-05T10:12:47;28.00;88.10
12773;DHT22;6450;48.576;13.460;2022-08-05T10:15:27;29.30;88.50
12773;DHT22;6450;48.576;13.460;2022-08-05T10:18:10;29.80;87.00
12773;DHT22;6450;48.576;13.460;2022-08-05T10:20:41;29.60;85.20
12773;DHT22;6450;48.576;13.460;2022-08-05T10:23:10;29.70;85.50
12773;DHT22;6450;48.576;13.460;2022-08-05T10:25:37;29.70;86.10
12773;DHT22;6450;48.576;13.460;2022-08-05T10:28:05;29.80;85.80
12773;DHT22;6450;48.576;13.460;2022-08-05T10:30:34;29.90;84.70
12773;DHT22;6450;48.576;13.460;2022-08-05T10:33:03;29.60;85.50
12773;DHT22;6450;48.576;13.460;2022-08-05T10:35:30;29.60;84.90
12773;DHT22;6450;48.576;13.460;2022-08-05T10:37:57;29.40;85.40
12773;DHT22;6450;48.576;13.460;2022-08-05T10:40:32;29.50;84.60
12773;DHT22;6450;48.576;13.460;2022-08-05T10:43:16;29.70;83.80
12773;DHT22;6450;48.576;13.460;2022-08-05T10:45:54;29.90;83.40
12773;DHT22;6450;48.576;13.460;2022-08-05T10:48:32;29.70;82.10
12773;DHT22;6450;48.576;13.460;2022-08-05T10:51:07;29.50;82.80
12773;DHT22;6450;48.576;13.460;2022-08-05T10:53:42;29.60;82.90
12773;DHT22;6450;48.576;13.460;2022-08-05T10:56:13;29.60;82.00
12773;DHT22;6450;48.576;13.460;2022-08-05T10:58:49;29.70;82.50
12773;DHT22;6450;48.576;13.460;2022-08-05T11:01:24;29.70;82.50
12773;DHT22;6450;48.576;13.460;2022-08-05T11:04:14;29.90;82.50
12773;DHT22;6450;48.576;13.460;2022-08-05T11:07:04;30.20;79.80
12773;DHT22;6450;48.576;13.460;2022-08-05T11:09:53;30.90;86.40
12773;DHT22;6450;48.576;13.460;2022-08-05T11:12:42;30.80;78.00
12773;DHT22;6450;48.576;13.460;2022-08-05T11:15:16;31.00;77.80
12773;DHT22;6450;48.576;13.460;2022-08-05T11:17:46;31.00;77.40
12773;DHT22;6450;48.576;13.460;2022-08-05T11:20:37;30.40;77.80
12773;DHT22;6450;48.576;13.460;2022-08-05T11:23:27;30.50;78.30
12773;DHT22;6450;48.576;13.460;2022-08-05T11:26:05;31.10;76.70
12773;DHT22;6450;48.576;13.460;2022-08-05T11:28:44;31.60;75.10
12773;DHT22;6450;48.576;13.460;2022-08-05T11:31:36;31.60;73.90
12773;DHT22;6450;48.576;13.460;2022-08-05T11:34:07;31.30;74.20
12773;DHT22;6450;48.576;13.460;2022-08-05T11:36:49;30.80;75.30
12773;DHT22;6450;48.576;13.460;2022-08-05T11:39:47;31.00;73.90
12773;DHT22;6450;48.576;13.460;2022-08-05T11:42:15;31.00;75.20
12773;DHT22;6450;48.576;13.460;2022-08-05T11:44:44;30.90;74.30
12773;DHT22;6450;48.576;13.460;2022-08-05T11:47:12;31.00;74.30
12773;DHT22;6450;48.576;13.460;2022-08-05T11:49:40;31.40;72.80
12773;DHT22;6450;48.576;13.460;2022-08-05T11:52:08;31.40;71.80
12773;DHT22;6450;48.576;13.460;2022-08-05T11:54:36;31.50;72.10
12773;DHT22;6450;48.576;13.460;2022-08-05T11:57:04;31.40;71.70
12773;DHT22;6450;48.576;13.460;2022-08-05T11:59:32;31.50;71.90
12773;DHT22;6450;48.576;13.460;2022-08-05T12:02:01;31.60;71.70
12773;DHT22;6450;48.576;13.460;2022-08-05T12:04:38;31.90;70.10
12773;DHT22;6450;48.576;13.460;2022-08-05T12:07:08;32.30;68.10
12773;DHT22;6450;48.576;13.460;2022-08-05T12:09:38;32.30;68.70
12773;DHT22;6450;48.576;13.460;2022-08-05T12:12:06;32.60;67.40
12773;DHT22;6450;48.576;13.460;2022-08-05T12:14:37;32.80;65.60
12773;DHT22;6450;48.576;13.460;2022-08-05T12:17:08;33.20;65.00
12773;DHT22;6450;48.576;13.460;2022-08-05T12:19:43;32.90;64.10
12773;DHT22;6450;48.576;13.460;2022-08-05T12:22:12;32.90;63.90
12773;DHT22;6450;48.576;13.460;2022-08-05T12:24:41;32.90;63.50
12773;DHT22;6450;48.576;13.460;2022-08-05T12:27:08;32.90;62.70
12773;DHT22;6450;48.576;13.460;2022-08-05T12:32:04;33.20;68.20
12773;DHT22;6450;48.576;13.460;2022-08-05T12:34:33;33.30;68.90
12773;DHT22;6450;48.576;13.460;2022-08-05T12:37:05;33.40;61.40
12773;DHT22;6450;48.576;13.460;2022-08-05T12:39:37;33.30;60.40
12773;DHT22;6450;48.576;13.460;2022-08-05T12:42:12;33.20;60.50
12773;DHT22;6450;48.576;13.460;2022-08-05T12:44:42;33.50;67.50
12773;DHT22;6450;48.576;13.460;2022-08-05T12:47:11;33.30;59.90
12773;DHT22;6450;48.576;13.460;2022-08-05T12:49:39;33.20;60.50
12773;DHT22;6450;48.576;13.460;2022-08-05T12:52:11;33.20;59.80
12773;DHT22;6450;48.576;13.460;2022-08-05T12:54:41;33.30;60.00
12773;DHT22;6450;48.576;13.460;2022-08-05T12:57:09;33.80;59.60
12773;DHT22;6450;48.576;13.460;2022-08-05T12:59:48;32.80;68.40
12773;DHT22;6450;48.576;13.460;2022-08-05T13:02:18;33.10;60.80
12773;DHT22;6450;48.576;13.460;2022-08-05T13:04:46;32.90;68.20
12773;DHT22;6450;48.576;13.460;2022-08-05T13:07:19;33.00;61.00
12773;DHT22;6450;48.576;13.460;2022-08-05T13:09:52;33.20;60.60
12773;DHT22;6450;48.576;13.460;2022-08-05T13:12:21;33.30;59.10
12773;DHT22;6450;48.576;13.460;2022-08-05T13:14:50;33.30;59.80
12773;DHT22;6450;48.576;13.460;2022-08-05T13:17:19;33.50;59.80
12773;DHT22;6450;48.576;13.460;2022-08-05T13:20:08;33.50;58.60
12773;DHT22;6450;48.576;13.460;2022-08-05T13:22:36;33.60;58.10
12773;DHT22;6450;48.576;13.460;2022-08-05T13:25:07;33.70;58.50
12773;DHT22;6450;48.576;13.460;2022-08-05T13:30:03;34.00;57.50
12773;DHT22;6450;48.576;13.460;2022-08-05T13:32:31;34.20;56.20
12773;DHT22;6450;48.576;13.460;2022-08-05T13:34:58;34.40;56.20
12773;DHT22;6450;48.576;13.460;2022-08-05T13:37:25;34.60;55.20
12773;DHT22;6450;48.576;13.460;2022-08-05T13:39:53;34.70;56.10
12773;DHT22;6450;48.576;13.460;2022-08-05T13:42:22;34.50;56.00
12773;DHT22;6450;48.576;13.460;2022-08-05T13:44:51;34.10;63.60
12773;DHT22;6450;48.576;13.460;2022-08-05T13:47:20;33.80;56.60
12773;DHT22;6450;48.576;13.460;2022-08-05T13:49:47;33.90;64.20
12773;DHT22;6450;48.576;13.460;2022-08-05T13:52:15;33.90;56.50
12773;DHT22;6450;48.576;13.460;2022-08-05T13:54:43;33.90;56.50
12773;DHT22;6450;48.576;13.460;2022-08-05T13:57:10;33.90;56.90
12773;DHT22;6450;48.576;13.460;2022-08-05T13:59:40;33.70;56.20
12773;DHT22;6450;48.576;13.460;2022-08-05T14:02:09;33.80;56.30
12773;DHT22;6450;48.576;13.460;2022-08-05T14:04:37;33.90;56.80
12773;DHT22;6450;48.576;13.460;2022-08-05T14:07:23;34.00;55.90
12773;DHT22;6450;48.576;13.460;2022-08-05T14:09:51;33.20;63.80
12773;DHT22;6450;48.576;13.460;2022-08-05T14:12:18;33.30;56.30
12773;DHT22;6450;48.576;13.460;2022-08-05T14:14:47;33.20;56.80
12773;DHT22;6450;48.576;13.460;2022-08-05T14:17:14;33.30;56.80
12773;DHT22;6450;48.576;13.460;2022-08-05T14:19:41;33.50;56.70
12773;DHT22;6450;48.576;13.460;2022-08-05T14:22:08;33.40;57.10
12773;DHT22;6450;48.576;13.460;2022-08-05T14:24:35;33.60;57.30
12773;DHT22;6450;48.576;13.460;2022-08-05T14:27:04;33.60;56.70
12773;DHT22;6450;48.576;13.460;2022-08-05T14:29:34;33.50;57.80
12773;DHT22;6450;48.576;13.460;2022-08-05T14:32:03;33.40;57.90
12773;DHT22;6450;48.576;13.460;2022-08-05T14:34:30;33.30;57.10
12773;DHT22;6450;48.576;13.460;2022-08-05T14:36:57;33.10;57.30
12773;DHT22;6450;48.576;13.460;2022-08-05T14:39:24;33.10;57.10
12773;DHT22;6450;48.576;13.460;2022-08-05T14:41:51;33.00;56.60
12773;DHT22;6450;48.576;13.460;2022-08-05T14:44:19;33.10;57.50
12773;DHT22;6450;48.576;13.460;2022-08-05T14:46:46;33.10;57.70
12773;DHT22;6450;48.576;13.460;2022-08-05T14:49:15;30.40;63.50
12773;DHT22;6450;48.576;13.460;2022-08-05T14:51:42;32.80;57.50
12773;DHT22;6450;48.576;13.460;2022-08-05T14:54:10;32.90;58.10
12773;DHT22;6450;48.576;13.460;2022-08-05T14:56:37;32.90;58.10
12773;DHT22;6450;48.576;13.460;2022-08-05T14:59:05;33.00;59.00
12773;DHT22;6450;48.576;13.460;2022-08-05T15:01:32;34.60;59.70
12773;DHT22;6450;48.576;13.460;2022-08-05T15:03:59;32.80;58.60
12773;DHT22;6450;48.576;13.460;2022-08-05T15:06:28;32.80;58.60
12773;DHT22;6450;48.576;13.460;2022-08-05T15:08:55;32.90;59.30
12773;DHT22;6450;48.576;13.460;2022-08-05T15:11:22;32.90;59.60
12773;DHT22;6450;48.576;13.460;2022-08-05T15:13:49;32.90;59.40
12773;DHT22;6450;48.576;13.460;2022-08-05T15:16:16;33.00;59.20
12773;DHT22;6450;48.576;13.460;2022-08-05T15:18:43;33.40;65.40
12773;DHT22;6450;48.576;13.460;2022-08-05T15:21:10;33.30;58.50
12773;DHT22;6450;48.576;13.460;2022-08-05T15:23:38;33.60;65.30
12773;DHT22;6450;48.576;13.460;2022-08-05T15:26:05;33.60;58.10
12773;DHT22;6450;48.576;13.460;2022-08-05T15:28:32;33.70;57.80
12773;DHT22;6450;48.576;13.460;2022-08-05T15:31:00;33.90;57.10
12773;DHT22;6450;48.576;13.460;2022-08-05T15:33:27;33.80;57.20
12773;DHT22;6450;48.576;13.460;2022-08-05T15:35:54;33.80;57.40
12773;DHT22;6450;48.576;13.460;2022-08-05T15:38:21;34.00;57.00
12773;DHT22;6450;48.576;13.460;2022-08-05T15:40:50;34.50;55.60
12773;DHT22;6450;48.576;13.460;2022-08-05T15:43:17;34.50;55.90
12773;DHT22;6450;48.576;13.460;2022-08-05T15:45:44;34.80;55.70
12773;DHT22;6450;48.576;13.460;2022-08-05T15:48:12;35.10;55.10
12773;DHT22;6450;48.576;13.460;2022-08-05T15:50:40;35.60;58.80
12773;DHT22;6450;48.576;13.460;2022-08-05T15:53:07;35.50;53.50